Time;durP1;ratioP1;P1;durP2;ratioP2;P2;SDS_P1;SDS_P2;PMS_P1;PMS_P2;Temp;Humidity;BMP_temperature;BMP_pressure;BME280_temperature;BME280_humidity;BME280_pressure;Samples;Min_cycle;Max_cycle;Signal;HPM_P1;HPM_P2
2022/03/13 00:39:23;;;;;;;;;;;;;;;5.82;69.51;101650.03;6133704;23;685;-96
2022/03/13 01:11:43;;;;;;;;;;;;;;;5.61;69.37;101661.13;6209531;23;2233;-96
2022/03/13 01:14:39;;;;;;;;;;;;;;;5.61;69.42;101663.81;6215366;23;676;-96
2022/03/13 01:17:34;;;;;;;;;;;;;;;5.58;69.51;101659.63;6209332;23;621;-96
2022/03/13 01:20:31;;;;;;;;;;;;;;;5.57;69.25;101649.09;6207841;23;656;-96
2022/03/13 01:23:01;;;;;;;;;;;;;;;5.55;69.66;101651.09;6181334;23;1392;-96
2022/03/13 01:25:30;;;;;;;;;;;;;;;5.54;69.49;101660.13;6180765;23;1894;-96
2022/03/13 01:28:01;;;;;;;;;;;;;;;5.53;69.31;101664.63;6181421;23;1393;-96
2022/03/13 01:30:29;;;;;;;;;;;;;;;5.51;69.19;101668.44;6180648;23;1246;-96
2022/03/13 01:32:58;;;;;;;;;;;;;;;5.49;69.54;101662.41;6181812;23;1362;-96
2022/03/13 01:35:31;;;;;;;;;;;;;;;5.47;69.46;101660.75;6181033;23;1117;-96
2022/03/13 01:38:05;;;;;;;;;;;;;;;5.45;69.50;101665.41;6181159;23;1024;-96
2022/03/13 01:40:38;;;;;;;;;;;;;;;5.44;69.52;101662.88;6206724;23;937;-96
2022/03/13 01:43:12;;;;;;;;;;;;;;;5.41;69.42;101661.41;6181416;23;1283;-96
2022/03/13 01:45:52;;;;;;;;;;;;;;;5.41;69.40;101663.19;6181435;23;1945;-96
2022/03/13 01:48:20;;;;;;;;;;;;;;;5.40;69.41;101659.69;6181150;23;1303;-96
2022/03/13 01:50:58;;;;;;;;;;;;;;;5.39;69.38;101654.53;6183036;23;1329;-96
2022/03/13 01:53:32;;;;;;;;;;;;;;;5.37;69.13;101653.84;6207824;23;854;-97
2022/03/13 01:56:02;;;;;;;;;;;;;;;5.35;69.41;101656.66;6183736;23;1211;-96
2022/03/13 01:58:35;;;;;;;;;;;;;;;5.33;69.24;101652.50;6183521;23;1247;-97
2022/03/13 02:03:52;;;;;;;;;;;;;;;5.31;69.36;101659.81;6181811;23;1289;-96
2022/03/13 02:06:22;;;;;;;;;;;;;;;5.28;69.12;101668.16;6183369;23;1877;-96
2022/03/13 02:08:54;;;;;;;;;;;;;;;5.27;69.32;101672.66;6183670;23;1442;-96
2022/03/13 02:11:25;;;;;;;;;;;;;;;5.26;69.30;101662.94;6178065;23;1475;-96
2022/03/13 02:13:59;;;;;;;;;;;;;;;5.23;69.28;101655.25;6178230;23;930;-96
2022/03/13 02:19:19;;;;;;;;;;;;;;;5.20;69.13;101645.72;6178738;23;1266;-96
2022/03/13 02:21:55;;;;;;;;;;;;;;;5.19;69.13;101656.56;6178719;23;1228;-96
2022/03/13 02:24:37;;;;;;;;;;;;;;;5.17;69.16;101650.53;6180133;23;1909;-96
2022/03/13 02:27:10;;;;;;;;;;;;;;;5.16;69.02;101648.88;6180201;23;1338;-96
2022/03/13 02:29:46;;;;;;;;;;;;;;;5.15;69.05;101640.03;6180493;23;870;-96
2022/03/13 02:32:29;;;;;;;;;;;;;;;5.14;69.07;101637.50;6179125;23;1686;-96
2022/03/13 02:35:29;;;;;;;;;;;;;;;5.12;69.01;101644.88;6180543;23;1251;-96
2022/03/13 02:38:03;;;;;;;;;;;;;;;5.10;69.11;101646.84;6181076;23;948;-96
2022/03/13 02:40:41;;;;;;;;;;;;;;;5.08;68.94;101644.31;6177531;23;1355;-96
2022/03/13 02:43:20;;;;;;;;;;;;;;;5.06;69.04;101650.81;6179775;23;1147;-96
2022/03/13 02:45:57;;;;;;;;;;;;;;;5.07;68.90;101641.81;6155901;23;1915;-96
2022/03/13 02:51:18;;;;;;;;;;;;;;;5.01;69.12;101646.78;6179270;23;1429;-96
2022/03/13 02:56:32;;;;;;;;;;;;;;;4.99;69.00;101647.94;6178165;23;925;-96
2022/03/13 02:59:20;;;;;;;;;;;;;;;4.97;69.07;101640.09;6177484;23;889;-96
2022/03/13 03:01:53;;;;;;;;;;;;;;;4.95;69.05;101642.06;6179256;23;1390;-96
2022/03/13 03:04:24;;;;;;;;;;;;;;;4.95;69.07;101649.25;6178239;23;1292;-96
2022/03/13 03:06:54;;;;;;;;;;;;;;;4.92;69.00;101655.72;6178705;23;1937;-96
2022/03/13 03:09:31;;;;;;;;;;;;;;;4.91;69.01;101643.38;6178940;23;1350;-96
2022/03/13 03:12:04;;;;;;;;;;;;;;;4.91;68.96;101648.72;6177992;23;1255;-96
2022/03/13 03:14:38;;;;;;;;;;;;;;;4.90;68.98;101648.88;6180215;23;1187;-96
2022/03/13 03:19:50;;;;;;;;;;;;;;;4.86;68.99;101648.34;6174186;23;1238;-96
2022/03/13 03:22:20;;;;;;;;;;;;;;;4.83;68.95;101640.66;6178842;23;989;-96
2022/03/13 03:24:55;;;;;;;;;;;;;;;4.82;68.94;101641.63;6154741;23;1902;-96
2022/03/13 03:27:32;;;;;;;;;;;;;;;4.80;68.81;101640.97;6177950;23;1338;-96
2022/03/13 03:30:00;;;;;;;;;;;;;;;4.80;68.85;101642.81;6178179;23;1593;-96
2022/03/13 03:32:32;;;;;;;;;;;;;;;4.77;69.00;101634.09;6152849;23;1206;-96
2022/03/13 03:35:06;;;;;;;;;;;;;;;4.77;68.92;101625.25;6178815;23;1374;-96
2022/03/13 03:37:46;;;;;;;;;;;;;;;4.75;68.83;101622.72;6178785;23;934;-96
2022/03/13 03:43:00;;;;;;;;;;;;;;;4.72;68.81;101628.38;6178461;23;1302;-96
2022/03/13 03:45:33;;;;;;;;;;;;;;;4.71;68.84;101629.38;6179352;23;1869;-96
2022/03/13 03:48:00;;;;;;;;;;;;;;;4.71;68.86;101640.06;6179455;23;1362;-96
2022/03/13 03:50:27;;;;;;;;;;;;;;;4.69;68.81;101641.22;6177480;23;1412;-96
2022/03/13 03:53:03;;;;;;;;;;;;;;;4.68;68.81;101653.72;6177798;23;1384;-96
2022/03/13 03:55:32;;;;;;;;;;;;;;;4.67;68.74;101651.19;6177328;23;1383;-97
2022/03/13 03:58:00;;;;;;;;;;;;;;;4.64;68.69;101647.00;6178083;23;1239;-96
2022/03/13 04:03:14;;;;;;;;;;;;;;;4.63;68.68;101645.31;6177845;23;1285;-96
2022/03/13 04:05:43;;;;;;;;;;;;;;;4.62;68.68;101662.34;6153853;23;1943;-96
2022/03/13 04:08:12;;;;;;;;;;;;;;;4.62;68.65;101658.81;6154903;23;1366;-96
2022/03/13 04:10:48;;;;;;;;;;;;;;;4.61;68.40;101662.47;6177375;23;1322;-96
2022/03/13 04:13:21;;;;;;;;;;;;;;;4.59;68.42;101657.31;6170747;23;1190;-96
2022/03/13 04:15:53;;;;;;;;;;;;;;;4.59;68.56;101651.97;6177763;23;1167;-96
2022/03/13 04:18:26;;;;;;;;;;;;;;;4.59;68.59;101645.78;6177014;23;1290;-96
2022/03/13 04:23:47;;;;;;;;;;;;;;;4.57;68.41;101648.63;6176044;23;1281;-96
2022/03/13 04:26:16;;;;;;;;;;;;;;;4.56;68.55;101646.94;6175924;23;1877;-96
2022/03/13 04:28:49;;;;;;;;;;;;;;;4.56;68.58;101652.28;6177203;23;1348;-96
2022/03/13 04:31:21;;;;;;;;;;;;;;;4.55;68.54;101645.25;6176545;23;1237;-96
2022/03/13 04:33:51;;;;;;;;;;;;;;;4.55;68.36;101642.59;6176304;23;1319;-96
2022/03/13 04:36:28;;;;;;;;;;;;;;;4.53;68.49;101648.09;6175714;23;1264;-96
2022/03/13 04:38:57;;;;;;;;;;;;;;;4.53;68.38;101640.09;6176669;23;1261;-96
2022/03/13 04:41:33;;;;;;;;;;;;;;;4.54;68.30;101647.09;6176761;23;882;-96
2022/03/13 04:44:04;;;;;;;;;;;;;;;4.54;68.18;101646.25;6176966;23;1292;-96
2022/03/13 04:46:40;;;;;;;;;;;;;;;4.55;68.31;101647.91;6176100;23;1877;-96
2022/03/13 04:49:10;;;;;;;;;;;;;;;4.53;68.08;101647.25;6177400;23;1262;-96
2022/03/13 04:51:40;;;;;;;;;;;;;;;4.51;68.07;101644.72;6176547;23;1338;-96
2022/03/13 04:54:19;;;;;;;;;;;;;;;4.51;68.33;101647.41;6178367;23;1282;-96
2022/03/13 04:56:48;;;;;;;;;;;;;;;4.54;67.97;101647.09;6154923;23;1327;-96
2022/03/13 04:59:16;;;;;;;;;;;;;;;4.50;68.12;101637.72;6178039;23;1080;-96
2022/03/13 05:01:51;;;;;;;;;;;;;;;4.51;68.04;101647.41;6178909;23;1197;-96
2022/03/13 05:04:19;;;;;;;;;;;;;;;4.50;68.02;101645.72;6180417;23;1063;-96
2022/03/13 05:09:33;;;;;;;;;;;;;;;4.51;67.98;101639.38;6179783;23;1274;-96
2022/03/13 05:17:31;;;;;;;;;;;;;;;4.51;67.92;101647.41;6181398;23;901;-96
2022/03/13 05:20:11;;;;;;;;;;;;;;;4.50;67.98;101663.53;6179665;23;1338;-96
2022/03/13 05:22:41;;;;;;;;;;;;;;;4.50;67.82;101655.53;6179511;23;1312;-96
2022/03/13 05:25:19;;;;;;;;;;;;;;;4.51;67.69;101674.06;6179998;23;1920;-96
2022/03/13 05:30:37;;;;;;;;;;;;;;;4.49;67.73;101677.88;6179528;23;1693;-96
2022/03/13 05:33:15;;;;;;;;;;;;;;;4.48;67.69;101678.88;6180675;23;1164;-96
2022/03/13 05:38:31;;;;;;;;;;;;;;;4.52;67.43;101667.72;6163751;23;1284;-96
2022/03/13 05:43:49;;;;;;;;;;;;;;;4.48;67.49;101669.03;6179865;23;1196;-96
2022/03/13 05:46:29;;;;;;;;;;;;;;;4.52;67.49;101661.56;6180832;23;1870;-96
2022/03/13 05:49:03;;;;;;;;;;;;;;;4.47;67.33;101654.03;6181042;23;1525;-96
2022/03/13 05:51:40;;;;;;;;;;;;;;;4.51;67.21;101651.91;6179904;23;1308;-96
2022/03/13 05:56:54;;;;;;;;;;;;;;;4.50;67.33;101680.41;6171780;23;1230;-96
2022/03/13 05:59:25;;;;;;;;;;;;;;;4.48;67.49;101690.38;6181406;23;1223;-96
2022/03/13 06:07:25;;;;;;;;;;;;;;;4.48;67.35;101692.22;6179206;23;1936;-96
2022/03/13 06:12:43;;;;;;;;;;;;;;;4.47;67.21;101694.06;6180622;23;1287;-96
2022/03/13 06:18:01;;;;;;;;;;;;;;;4.50;67.26;101690.22;6181483;23;944;-96
2022/03/13 06:20:36;;;;;;;;;;;;;;;4.49;67.33;101688.56;6180696;23;1287;-96
2022/03/13 06:26:00;;;;;;;;;;;;;;;4.51;67.08;101684.75;6172327;23;1877;-96
2022/03/13 06:31:25;;;;;;;;;;;;;;;4.51;67.17;101689.25;6176607;23;1307;-96
2022/03/13 06:34:06;;;;;;;;;;;;;;;4.53;67.03;101695.28;6182773;23;928;-96
2022/03/13 06:36:39;;;;;;;;;;;;;;;4.54;66.92;101694.28;6183874;23;1395;-96
2022/03/13 06:39:14;;;;;;;;;;;;;;;4.49;66.79;101697.38;6184267;23;1397;-96
2022/03/13 06:41:47;;;;;;;;;;;;;;;4.49;67.07;101693.88;6184389;23;1331;-96
2022/03/13 06:53:20;;;;;;;;;;;;;;;4.47;67.11;101707.41;6153066;23;682;-96
2022/03/13 06:55:47;;;;;;;;;;;;;;;4.52;66.77;101712.25;6113297;23;1487;-96
2022/03/13 07:16:05;;;;;;;;;;;;;;;4.52;66.67;101722.94;6159604;23;2073;-96
2022/03/13 07:18:59;;;;;;;;;;;;;;;4.50;66.73;101724.91;6171775;23;605;-96
2022/03/13 07:21:28;;;;;;;;;;;;;;;4.55;66.71;101725.28;6144303;23;1218;-96
2022/03/13 07:23:54;;;;;;;;;;;;;;;4.55;66.70;101731.47;6143226;23;1243;-96
2022/03/13 07:26:21;;;;;;;;;;;;;;;4.55;66.76;101728.78;6140869;23;1952;-96
2022/03/13 07:28:47;;;;;;;;;;;;;;;4.54;66.68;101732.47;6141829;23;1264;-96
2022/03/13 07:31:15;;;;;;;;;;;;;;;4.55;66.68;101727.97;6142190;23;1193;-96
2022/03/13 07:33:42;;;;;;;;;;;;;;;4.55;66.78;101730.63;6139892;23;1384;-96
2022/03/13 07:36:09;;;;;;;;;;;;;;;4.57;66.55;101725.16;6137278;23;1250;-96
2022/03/13 07:38:35;;;;;;;;;;;;;;;4.55;66.63;101727.97;6137633;23;1269;-96
2022/03/13 07:41:03;;;;;;;;;;;;;;;4.51;66.84;101727.44;6135974;23;1192;-96
2022/03/13 07:43:29;;;;;;;;;;;;;;;4.53;66.63;101725.47;6135867;23;1374;-96
2022/03/13 07:45:59;;;;;;;;;;;;;;;4.52;66.69;101728.25;6134211;23;1882;-96
2022/03/13 07:48:25;;;;;;;;;;;;;;;4.56;66.58;101732.31;6137976;23;1267;-96
2022/03/13 07:50:52;;;;;;;;;;;;;;;4.55;66.71;101728.78;6137653;23;1200;-96
2022/03/13 07:53:19;;;;;;;;;;;;;;;4.56;66.64;101732.31;6136507;23;1199;-96
2022/03/13 07:55:49;;;;;;;;;;;;;;;4.59;66.68;101733.81;6134970;23;1397;-96
2022/03/13 07:58:16;;;;;;;;;;;;;;;4.58;66.55;101749.00;6136231;23;1327;-96
2022/03/13 08:00:47;;;;;;;;;;;;;;;4.60;66.71;101748.88;6136978;23;1307;-96
2022/03/13 08:03:16;;;;;;;;;;;;;;;4.59;66.52;101742.69;6138505;23;1408;-96
2022/03/13 08:05:43;;;;;;;;;;;;;;;4.59;66.71;101744.50;6136717;23;1952;-96
2022/03/13 08:08:10;;;;;;;;;;;;;;;4.59;66.71;101734.69;6136708;23;1217;-96
2022/03/13 08:10:36;;;;;;;;;;;;;;;4.62;66.71;101730.84;6138784;23;1296;-96
2022/03/13 08:13:03;;;;;;;;;;;;;;;4.62;66.63;101741.53;6137960;23;1228;-96
2022/03/13 08:15:32;;;;;;;;;;;;;;;4.62;66.70;101741.53;6138926;23;1359;-96
2022/03/13 08:18:09;;;;;;;;;;;;;;;4.65;66.64;101743.94;6141282;23;1209;-96
2022/03/13 08:20:38;;;;;;;;;;;;;;;4.64;66.72;101747.56;6141473;23;1225;-96
2022/03/13 08:23:05;;;;;;;;;;;;;;;4.67;66.46;101750.75;6141335;23;1288;-96
2022/03/13 08:25:36;;;;;;;;;;;;;;;4.69;66.37;101753.28;6143202;23;1240;-96
2022/03/13 08:28:03;;;;;;;;;;;;;;;4.65;66.57;101744.75;6145570;23;1913;-96
2022/03/13 08:30:30;;;;;;;;;;;;;;;4.68;66.58;101748.97;6147317;23;1288;-96
2022/03/13 08:32:58;;;;;;;;;;;;;;;4.67;66.66;101744.59;6146598;23;1273;-96
2022/03/13 08:35:31;;;;;;;;;;;;;;;4.68;66.57;101754.28;6148305;23;1273;-96
2022/03/13 08:38:06;;;;;;;;;;;;;;;4.69;66.64;101756.78;6149861;23;1315;-96
2022/03/13 08:40:34;;;;;;;;;;;;;;;4.72;66.75;101761.00;6148366;23;1312;-96
2022/03/13 08:43:02;;;;;;;;;;;;;;;4.71;66.58;101754.00;6149481;23;1293;-96
2022/03/13 08:45:29;;;;;;;;;;;;;;;4.72;66.66;101747.66;6153112;23;1202;-96
2022/03/13 08:47:57;;;;;;;;;;;;;;;4.73;66.57;101749.31;6151702;23;1903;-96
2022/03/13 08:50:29;;;;;;;;;;;;;;;4.74;66.77;101754.53;6153227;23;1276;-96
2022/03/13 08:55:46;;;;;;;;;;;;;;;4.79;66.45;101751.38;6156024;23;1168;-96
2022/03/13 08:58:18;;;;;;;;;;;;;;;4.81;66.53;101748.56;6157144;23;1206;-96
2022/03/13 09:03:38;;;;;;;;;;;;;;;4.82;66.39;101748.41;6154079;23;1278;-96
2022/03/13 09:45:32;;;;;;;;;;;;;;;5.09;66.43;101749.28;6069068;23;847;-96
2022/03/13 16:49:54;;;;;;;;;;;;;;;7.98;70.33;101677.22;6183300;23;601;-96
2022/03/13 16:55:56;;;;;;;;;;;;;;;7.96;70.13;101672.00;6184011;23;826;-96
2022/03/13 16:58:53;;;;;;;;;;;;;;;7.97;70.42;101684.44;6183711;23;613;-96
2022/03/13 17:01:57;;;;;;;;;;;;;;;7.99;70.11;101688.78;6183725;23;626;-96
2022/03/13 17:08:17;;;;;;;;;;;;;;;7.99;70.48;101696.81;6182501;23;1862;-96
2022/03/13 17:13:35;;;;;;;;;;;;;;;7.96;70.40;101695.31;6211706;23;1184;-96
2022/03/13 17:16:06;;;;;;;;;;;;;;;7.95;70.39;101694.50;6187210;23;1425;-96
2022/03/13 17:18:38;;;;;;;;;;;;;;;7.95;70.74;101694.50;6211365;23;1088;-96
2022/03/13 17:26:46;;;;;;;;;;;;;;;7.94;70.46;101698.19;6179625;23;1923;-96
2022/03/13 17:29:30;;;;;;;;;;;;;;;7.95;70.70;101704.41;6183158;23;831;-96
2022/03/13 17:34:55;;;;;;;;;;;;;;;7.93;70.42;101701.88;6157850;23;1258;-96
2022/03/13 17:51:02;;;;;;;;;;;;;;;7.87;70.77;101707.94;5135405;27;1346052;-96
2022/03/13 17:53:29;;;;;;;;;;;;;;;7.88;71.03;101704.25;5161549;27;1281;-96
2022/03/13 17:56:07;;;;;;;;;;;;;;;7.87;70.89;101713.28;5170663;27;1295;-96
2022/03/13 17:58:37;;;;;;;;;;;;;;;7.85;71.11;101704.59;5163615;27;1976;-96
2022/03/13 18:01:04;;;;;;;;;;;;;;;7.86;70.73;101713.50;5141868;27;1881;-96
2022/03/13 18:03:32;;;;;;;;;;;;;;;7.84;70.97;101716.31;5159722;27;861;-96
2022/03/13 18:05:59;;;;;;;;;;;;;;;7.84;70.73;101718.19;5141720;27;1315;-96
2022/03/13 18:08:26;;;;;;;;;;;;;;;7.83;70.95;101713.84;5144813;27;1347;-96
2022/03/13 18:10:53;;;;;;;;;;;;;;;7.82;71.02;101718.34;5160392;27;1274;-96
2022/03/13 18:13:20;;;;;;;;;;;;;;;7.82;70.69;101718.34;5165177;27;1302;-96
2022/03/13 18:15:46;;;;;;;;;;;;;;;7.82;71.05;101729.06;5159683;27;1653;-96
2022/03/13 18:18:14;;;;;;;;;;;;;;;7.80;70.85;101722.22;5143029;27;1910;-96
2022/03/13 18:20:40;;;;;;;;;;;;;;;7.82;70.97;101728.25;5163674;27;1374;-96
2022/03/13 18:23:08;;;;;;;;;;;;;;;7.80;70.84;101723.06;5166578;27;1341;-96
2022/03/13 18:25:35;;;;;;;;;;;;;;;7.80;70.85;101724.91;5149671;27;1198;-96
2022/03/13 18:28:03;;;;;;;;;;;;;;;7.80;70.85;101731.09;5149280;27;1535;-96
2022/03/13 18:30:30;;;;;;;;;;;;;;;7.79;70.89;101729.41;5165990;27;1970;-96
2022/03/13 18:32:57;;;;;;;;;;;;;;;7.77;70.66;101731.44;5149311;27;1283;-96
2022/03/13 18:35:27;;;;;;;;;;;;;;;7.77;70.83;101728.78;5149512;27;1321;-96
2022/03/13 18:37:54;;;;;;;;;;;;;;;7.77;70.65;101730.63;5149674;27;1428;-96
2022/03/13 18:40:24;;;;;;;;;;;;;;;7.76;70.89;101726.25;5166604;27;1984;-96
2022/03/13 18:45:36;;;;;;;;;;;;;;;7.75;70.67;101720.06;5155096;27;1366;-96
2022/03/13 18:48:05;;;;;;;;;;;;;;;7.73;70.81;101724.75;5144578;27;1385;-96
2022/03/13 18:50:32;;;;;;;;;;;;;;;7.72;70.72;101731.97;5119684;28;1350;-96
2022/03/13 18:52:59;;;;;;;;;;;;;;;7.72;70.79;101728.44;5109359;28;1591;-96
2022/03/13 18:55:26;;;;;;;;;;;;;;;7.71;70.81;101724.94;5130442;28;1175;-96
2022/03/13 18:57:54;;;;;;;;;;;;;;;7.70;70.98;101728.59;5132596;28;1379;-96
2022/03/13 19:00:21;;;;;;;;;;;;;;;7.70;70.90;101735.81;5129283;28;1955;-96
2022/03/13 19:02:49;;;;;;;;;;;;;;;7.68;70.97;101738.69;5130045;28;1279;-96
2022/03/13 19:05:16;;;;;;;;;;;;;;;7.68;70.50;101738.69;5129141;28;1229;-96
2022/03/13 19:07:54;;;;;;;;;;;;;;;7.67;70.55;101736.16;5126315;28;1523;-96
2022/03/13 19:10:20;;;;;;;;;;;;;;;7.66;70.82;101739.84;5108988;28;1490;-96
2022/03/13 19:12:47;;;;;;;;;;;;;;;7.65;70.55;101735.50;5120129;28;1270;-96
2022/03/13 19:15:14;;;;;;;;;;;;;;;7.62;70.88;101739.38;5115130;28;1927;-96
2022/03/13 19:17:41;;;;;;;;;;;;;;;7.62;70.53;101738.53;5108470;28;1931;-96
2022/03/13 19:20:08;;;;;;;;;;;;;;;7.61;70.71;101737.69;5103736;28;1898;-96
2022/03/13 19:22:34;;;;;;;;;;;;;;;7.60;70.71;101736.03;5098720;28;1617;-96
2022/03/13 19:25:00;;;;;;;;;;;;;;;7.59;70.92;101739.72;5116220;27;1758;-96
2022/03/13 19:27:28;;;;;;;;;;;;;;;7.58;70.68;101742.56;5097117;28;1280;-96
2022/03/13 19:29:55;;;;;;;;;;;;;;;7.56;70.78;101737.38;5108703;28;1615;-96
2022/03/13 19:32:23;;;;;;;;;;;;;;;7.55;70.82;101741.03;5121753;28;1393;-96
2022/03/13 19:34:51;;;;;;;;;;;;;;;7.54;70.57;101741.22;5133614;28;1499;-96
2022/03/13 19:37:18;;;;;;;;;;;;;;;7.51;70.57;101742.41;5132681;28;1340;-96
2022/03/13 19:39:45;;;;;;;;;;;;;;;7.50;70.64;101741.56;5132379;28;1882;-96
2022/03/13 19:42:15;;;;;;;;;;;;;;;7.50;70.91;101738.91;5138477;28;1445;-96
2022/03/13 19:44:47;;;;;;;;;;;;;;;7.48;71.04;101738.22;5114284;28;2828;-96
2022/03/13 19:47:14;;;;;;;;;;;;;;;7.47;70.95;101736.56;5108368;28;3139;-96
2022/03/13 19:49:41;;;;;;;;;;;;;;;7.45;70.58;101735.88;5117401;28;1181;-96
2022/03/13 19:52:09;;;;;;;;;;;;;;;7.44;70.72;101736.91;5130626;27;1736;-96
2022/03/13 19:54:41;;;;;;;;;;;;;;;7.42;70.75;101738.06;5149862;27;1315;-96
2022/03/13 19:57:09;;;;;;;;;;;;;;;7.41;70.75;101734.56;5138935;27;1298;-96
2022/03/13 19:59:36;;;;;;;;;;;;;;;7.40;71.00;101734.72;5128108;27;1910;-96
2022/03/13 20:02:04;;;;;;;;;;;;;;;7.39;70.63;101739.25;5135645;27;1305;-96
2022/03/13 20:04:33;;;;;;;;;;;;;;;7.37;70.70;101735.06;5146312;27;1723;-96
2022/03/13 20:07:03;;;;;;;;;;;;;;;7.36;70.94;101744.94;5134074;27;1741;-96
2022/03/13 20:09:30;;;;;;;;;;;;;;;7.36;71.00;101741.44;5145833;27;1534;-96
2022/03/13 20:11:59;;;;;;;;;;;;;;;7.34;71.02;101741.59;5135480;27;1606;-96
2022/03/13 20:14:27;;;;;;;;;;;;;;;7.32;71.13;101740.91;5131785;27;1693;-96
2022/03/13 20:16:53;;;;;;;;;;;;;;;7.31;70.72;101739.25;5147913;27;1178;-96
2022/03/13 20:19:20;;;;;;;;;;;;;;;7.31;70.96;101738.41;5148421;27;1894;-96
2022/03/13 20:21:47;;;;;;;;;;;;;;;7.29;70.74;101735.88;5137759;27;1427;-96
2022/03/13 20:24:18;;;;;;;;;;;;;;;7.27;71.01;101730.72;5144054;27;1210;-96
2022/03/13 20:26:45;;;;;;;;;;;;;;;7.26;71.14;101729.06;5132401;27;1272;-96
2022/03/13 20:29:13;;;;;;;;;;;;;;;7.25;70.57;101735.41;5123629;27;1398;-96
2022/03/13 20:31:40;;;;;;;;;;;;;;;7.23;70.97;101729.38;5127173;27;1791;-96
2022/03/13 20:34:11;;;;;;;;;;;;;;;7.20;71.01;101743.09;5123599;28;1289;-96
2022/03/13 20:36:40;;;;;;;;;;;;;;;7.20;70.60;101736.91;5129968;27;1802;-96
2022/03/13 20:39:06;;;;;;;;;;;;;;;7.18;70.61;101737.09;5138424;27;1917;-96
2022/03/13 20:41:33;;;;;;;;;;;;;;;7.16;70.58;101743.63;5128856;27;1339;-96
2022/03/13 20:44:00;;;;;;;;;;;;;;;7.15;70.64;101742.78;5124424;28;1491;-96
2022/03/13 20:46:27;;;;;;;;;;;;;;;7.13;71.03;101742.09;5137325;27;1291;-96
2022/03/13 20:48:54;;;;;;;;;;;;;;;7.12;70.96;101740.44;5136410;27;1457;-96
2022/03/13 20:51:20;;;;;;;;;;;;;;;7.12;70.94;101742.25;5145954;27;1535;-96
2022/03/13 20:53:47;;;;;;;;;;;;;;;7.11;70.81;101740.59;5145938;27;1199;-96
2022/03/13 20:56:15;;;;;;;;;;;;;;;7.09;70.81;101745.28;5135526;27;1310;-96
2022/03/13 20:58:41;;;;;;;;;;;;;;;7.08;70.84;101743.63;5132834;27;1295;-96
2022/03/13 21:01:08;;;;;;;;;;;;;;;7.06;70.76;101741.13;5148732;27;1952;-96
2022/03/13 21:03:35;;;;;;;;;;;;;;;7.03;70.95;101739.59;5137425;27;1300;-96
2022/03/13 21:06:03;;;;;;;;;;;;;;;7.02;70.87;101743.28;5132795;27;1227;-96
2022/03/13 21:08:29;;;;;;;;;;;;;;;7.02;70.82;101755.84;5127640;27;1492;-96
2022/03/13 21:10:56;;;;;;;;;;;;;;;6.99;70.80;101748.97;5132305;27;1840;-96
2022/03/13 21:13:23;;;;;;;;;;;;;;;6.98;70.69;101749.97;5135597;27;1346;-96
2022/03/13 21:21:39;;;;;;;;;;;;;;;6.95;70.75;101755.66;5135780;27;1466;-96
2022/03/13 21:24:07;;;;;;;;;;;;;;;6.93;70.69;101756.84;5136538;27;1308;-96
2022/03/13 21:26:35;;;;;;;;;;;;;;;6.91;70.87;101759.69;5153110;27;1431;-96
2022/03/13 21:29:02;;;;;;;;;;;;;;;6.89;70.74;101759.03;5154467;27;1333;-96
2022/03/13 21:31:30;;;;;;;;;;;;;;;6.87;70.84;101761.03;5140436;27;1432;-96
2022/03/13 21:33:57;;;;;;;;;;;;;;;6.87;70.46;101757.50;5133412;27;1403;-96
2022/03/13 21:36:24;;;;;;;;;;;;;;;6.85;70.58;101767.53;5132033;27;1323;-96
2022/03/13 21:38:51;;;;;;;;;;;;;;;6.84;70.89;101764.03;5136691;28;1313;-96
2022/03/13 21:41:18;;;;;;;;;;;;;;;6.82;70.75;101766.88;5138067;27;2146;-96
2022/03/13 21:43:45;;;;;;;;;;;;;;;6.80;70.46;101765.38;5139002;27;1344;-96
2022/03/13 21:46:12;;;;;;;;;;;;;;;6.80;70.48;101770.72;5138411;27;1737;-96
2022/03/13 21:48:39;;;;;;;;;;;;;;;6.76;70.59;101762.16;5129458;28;1550;-96
2022/03/13 21:51:06;;;;;;;;;;;;;;;6.76;70.75;101767.53;5123170;27;1307;-96
2022/03/13 21:53:34;;;;;;;;;;;;;;;6.75;70.26;101765.84;5111347;28;1260;-96
2022/03/13 21:56:02;;;;;;;;;;;;;;;6.74;70.63;101769.53;5121853;28;1837;-96
2022/03/13 21:58:29;;;;;;;;;;;;;;;6.71;70.29;101761.84;5108079;28;1597;-96
2022/03/13 22:00:56;;;;;;;;;;;;;;;6.70;70.62;101765.50;5105014;28;1909;-96
2022/03/13 22:03:23;;;;;;;;;;;;;;;6.68;70.52;101764.03;5115561;28;1403;-96
2022/03/13 22:05:49;;;;;;;;;;;;;;;6.68;70.25;101761.34;5113269;28;1487;-96
2022/03/13 22:08:17;;;;;;;;;;;;;;;6.65;70.35;101765.19;5103798;28;1184;-96
2022/03/13 22:10:43;;;;;;;;;;;;;;;6.64;70.32;101768.84;5103768;28;1782;-96
2022/03/13 22:13:12;;;;;;;;;;;;;;;6.63;70.72;101777.06;5104925;28;1242;-96
2022/03/13 22:15:39;;;;;;;;;;;;;;;6.62;70.35;101772.69;5121054;28;1260;-96
2022/03/13 22:18:11;;;;;;;;;;;;;;;6.59;70.27;101765.84;5108026;28;1845;-96
2022/03/13 22:20:38;;;;;;;;;;;;;;;6.59;70.21;101763.16;5110253;28;1914;-96
2022/03/13 22:23:06;;;;;;;;;;;;;;;6.57;70.53;101763.31;5122350;28;1527;-96
2022/03/13 22:25:33;;;;;;;;;;;;;;;6.55;70.25;101759.13;5108804;28;1962;-96
2022/03/13 22:27:59;;;;;;;;;;;;;;;6.54;70.24;101754.78;5123816;28;1832;-96
2022/03/13 22:30:26;;;;;;;;;;;;;;;6.52;70.17;101748.75;5112680;28;1289;-96
2022/03/13 22:32:53;;;;;;;;;;;;;;;6.51;70.23;101747.06;5127135;28;1207;-96
2022/03/13 22:35:20;;;;;;;;;;;;;;;6.48;70.28;101750.91;5125726;28;1434;-96
2022/03/13 22:37:47;;;;;;;;;;;;;;;6.48;70.44;101755.44;5121815;28;2040;-96
2022/03/13 22:40:15;;;;;;;;;;;;;;;6.47;70.14;101753.75;5111083;28;1967;-96
2022/03/13 22:42:42;;;;;;;;;;;;;;;6.46;70.47;101760.94;5108711;28;1542;-96
2022/03/13 22:45:11;;;;;;;;;;;;;;;6.45;70.51;101758.44;5112868;28;1270;-96
2022/03/13 22:47:40;;;;;;;;;;;;;;;6.44;70.06;101760.28;5107101;28;1247;-96
2022/03/13 22:50:07;;;;;;;;;;;;;;;6.43;70.24;101765.78;5119840;27;1315;-96
2022/03/13 22:52:39;;;;;;;;;;;;;;;6.40;70.46;101776.81;5150499;27;1445;-96
2022/03/13 22:55:06;;;;;;;;;;;;;;;6.38;70.11;101779.63;5137983;27;1408;-96
2022/03/13 22:57:33;;;;;;;;;;;;;;;6.37;70.47;101778.81;5143383;27;1756;-96
2022/03/13 23:00:00;;;;;;;;;;;;;;;6.36;70.05;101773.63;5151389;27;1886;-96
2022/03/13 23:02:28;;;;;;;;;;;;;;;6.34;70.01;101775.63;5147166;27;1355;-96
2022/03/13 23:04:54;;;;;;;;;;;;;;;6.34;69.98;101783.66;5138835;27;1414;-96
2022/03/13 23:07:22;;;;;;;;;;;;;;;6.31;70.16;101779.47;5129915;27;1652;-96
2022/03/13 23:09:49;;;;;;;;;;;;;;;6.31;69.99;101797.34;5131709;27;1401;-96
2022/03/13 23:12:16;;;;;;;;;;;;;;;6.29;69.97;101785.97;5123449;27;1376;-96
2022/03/13 23:14:43;;;;;;;;;;;;;;;6.27;69.93;101774.59;5121165;28;1251;-96
2022/03/13 23:17:10;;;;;;;;;;;;;;;6.26;69.98;101778.25;5132244;27;1369;-96
2022/03/13 23:19:37;;;;;;;;;;;;;;;6.23;70.15;101778.59;5130055;27;1976;-96
2022/03/13 23:22:04;;;;;;;;;;;;;;;6.23;69.96;101782.09;5121716;28;1332;-96
2022/03/13 23:24:31;;;;;;;;;;;;;;;6.22;70.10;101774.25;5126897;27;1888;-96
2022/03/13 23:26:58;;;;;;;;;;;;;;;6.20;70.02;101774.41;5123874;27;1398;-96
2022/03/13 23:29:26;;;;;;;;;;;;;;;6.20;70.03;101778.91;5128552;27;1473;-96
2022/03/13 23:31:53;;;;;;;;;;;;;;;6.19;69.84;101786.09;5135884;27;1456;-96
2022/03/13 23:34:28;;;;;;;;;;;;;;;6.16;70.07;101786.44;5124692;27;1375;-96
2022/03/13 23:36:55;;;;;;;;;;;;;;;6.16;70.07;101788.28;5133915;27;1202;-96
2022/03/13 23:39:21;;;;;;;;;;;;;;;6.14;70.19;101783.91;5141807;27;1924;-96
2022/03/13 23:41:50;;;;;;;;;;;;;;;6.13;69.87;101784.91;5130555;27;1992;-96
2022/03/13 23:44:17;;;;;;;;;;;;;;;6.11;69.81;101792.25;5127637;27;1830;-96
2022/03/13 23:46:44;;;;;;;;;;;;;;;6.08;69.95;101797.91;5132549;27;1803;-96
2022/03/13 23:49:11;;;;;;;;;;;;;;;6.07;70.07;101796.25;5126867;27;1238;-96
2022/03/13 23:51:40;;;;;;;;;;;;;;;6.06;70.16;101794.59;5128284;27;1447;-96
2022/03/13 23:54:07;;;;;;;;;;;;;;;6.06;70.04;101793.72;5125367;27;1423;-96
2022/03/13 23:56:35;;;;;;;;;;;;;;;6.04;70.05;101790.38;5119133;28;1751;-96
2022/03/13 23:59:02;;;;;;;;;;;;;;;6.03;69.87;101807.41;5121971;28;1524;-96
